sensor_id;sensor_type;location;lat;lon;timestamp;temperature;humidity
70214;DHT22;60138;55.808;37.078;2022-08-21T00:01:04;17.81;43.35
70214;DHT22;60138;55.808;37.078;2022-08-21T00:03:30;17.78;43.28
70214;DHT22;60138;55.808;37.078;2022-08-21T00:05:56;17.72;43.48
70214;DHT22;60138;55.808;37.078;2022-08-21T00:08:21;17.72;43.41
70214;DHT22;60138;55.808;37.078;2022-08-21T00:10:48;17.70;43.30
70214;DHT22;60138;55.808;37.078;2022-08-21T00:13:13;17.70;43.27
70214;DHT22;60138;55.808;37.078;2022-08-21T00:15:40;17.70;43.26
70214;DHT22;60138;55.808;37.078;2022-08-21T00:18:07;17.72;43.36
70214;DHT22;60138;55.808;37.078;2022-08-21T00:20:34;17.70;43.29
70214;DHT22;60138;55.808;37.078;2022-08-21T00:23:01;17.68;43.20
70214;DHT22;60138;55.808;37.078;2022-08-21T00:25:27;17.68;43.29
70214;DHT22;60138;55.808;37.078;2022-08-21T00:27:54;17.65;43.69
70214;DHT22;60138;55.808;37.078;2022-08-21T00:30:22;17.62;43.59
70214;DHT22;60138;55.808;37.078;2022-08-21T00:32:48;17.60;43.68
70214;DHT22;60138;55.808;37.078;2022-08-21T00:35:17;17.55;43.70
70214;DHT22;60138;55.808;37.078;2022-08-21T00:37:43;17.53;43.74
70214;DHT22;60138;55.808;37.078;2022-08-21T00:40:13;17.52;43.73
70214;DHT22;60138;55.808;37.078;2022-08-21T00:42:39;17.51;43.58
70214;DHT22;60138;55.808;37.078;2022-08-21T00:45:06;17.49;43.64
70214;DHT22;60138;55.808;37.078;2022-08-21T00:47:32;17.49;43.74
70214;DHT22;60138;55.808;37.078;2022-08-21T00:49:58;17.48;43.69
70214;DHT22;60138;55.808;37.078;2022-08-21T00:52:28;17.47;43.79
70214;DHT22;60138;55.808;37.078;2022-08-21T00:54:55;17.49;43.60
70214;DHT22;60138;55.808;37.078;2022-08-21T00:57:26;17.49;43.79
70214;DHT22;60138;55.808;37.078;2022-08-21T00:59:56;17.49;43.70
70214;DHT22;60138;55.808;37.078;2022-08-21T01:02:24;17.50;43.63
70214;DHT22;60138;55.808;37.078;2022-08-21T01:04:50;17.51;43.64
70214;DHT22;60138;55.808;37.078;2022-08-21T01:07:16;17.53;43.73
70214;DHT22;60138;55.808;37.078;2022-08-21T01:09:43;17.52;43.59
70214;DHT22;60138;55.808;37.078;2022-08-21T01:12:09;17.47;43.68
70214;DHT22;60138;55.808;37.078;2022-08-21T01:14:35;17.44;43.79
70214;DHT22;60138;55.808;37.078;2022-08-21T01:17:01;17.37;43.84
70214;DHT22;60138;55.808;37.078;2022-08-21T01:19:28;17.33;43.87
70214;DHT22;60138;55.808;37.078;2022-08-21T01:21:53;17.28;44.14
70214;DHT22;60138;55.808;37.078;2022-08-21T01:24:19;17.22;44.12
70214;DHT22;60138;55.808;37.078;2022-08-21T01:26:46;17.17;44.34
70214;DHT22;60138;55.808;37.078;2022-08-21T01:32:13;17.06;44.65
70214;DHT22;60138;55.808;37.078;2022-08-21T01:34:43;16.99;44.67
70214;DHT22;60138;55.808;37.078;2022-08-21T01:37:10;16.93;44.52
70214;DHT22;60138;55.808;37.078;2022-08-21T01:39:36;16.89;44.76
70214;DHT22;60138;55.808;37.078;2022-08-21T01:42:03;16.86;44.45
70214;DHT22;60138;55.808;37.078;2022-08-21T01:44:29;16.82;44.86
70214;DHT22;60138;55.808;37.078;2022-08-21T01:46:58;16.76;44.75
70214;DHT22;60138;55.808;37.078;2022-08-21T01:49:24;16.71;45.26
70214;DHT22;60138;55.808;37.078;2022-08-21T01:51:50;16.66;45.12
70214;DHT22;60138;55.808;37.078;2022-08-21T01:54:16;16.61;45.28
70214;DHT22;60138;55.808;37.078;2022-08-21T01:56:46;16.54;45.48
70214;DHT22;60138;55.808;37.078;2022-08-21T01:59:13;16.47;45.28
70214;DHT22;60138;55.808;37.078;2022-08-21T02:01:38;16.43;45.56
70214;DHT22;60138;55.808;37.078;2022-08-21T02:04:05;16.39;45.75
70214;DHT22;60138;55.808;37.078;2022-08-21T02:06:31;16.34;45.94
70214;DHT22;60138;55.808;37.078;2022-08-21T02:08:57;16.30;45.80
70214;DHT22;60138;55.808;37.078;2022-08-21T02:11:23;16.26;46.18
70214;DHT22;60138;55.808;37.078;2022-08-21T02:13:48;16.21;46.07
70214;DHT22;60138;55.808;37.078;2022-08-21T02:16:14;16.18;46.31
70214;DHT22;60138;55.808;37.078;2022-08-21T02:18:40;16.15;46.27
70214;DHT22;60138;55.808;37.078;2022-08-21T02:21:07;16.15;46.34
70214;DHT22;60138;55.808;37.078;2022-08-21T02:23:32;16.16;46.52
70214;DHT22;60138;55.808;37.078;2022-08-21T02:26:00;16.14;46.42
70214;DHT22;60138;55.808;37.078;2022-08-21T02:28:26;16.12;46.51
70214;DHT22;60138;55.808;37.078;2022-08-21T02:30:52;16.12;46.72
70214;DHT22;60138;55.808;37.078;2022-08-21T02:33:19;16.12;46.51
70214;DHT22;60138;55.808;37.078;2022-08-21T02:35:46;16.14;46.51
70214;DHT22;60138;55.808;37.078;2022-08-21T02:38:15;16.13;46.77
70214;DHT22;60138;55.808;37.078;2022-08-21T02:40:43;16.14;46.67
70214;DHT22;60138;55.808;37.078;2022-08-21T02:43:10;16.12;46.23
70214;DHT22;60138;55.808;37.078;2022-08-21T02:45:36;16.13;46.44
70214;DHT22;60138;55.808;37.078;2022-08-21T02:48:07;16.11;46.83
70214;DHT22;60138;55.808;37.078;2022-08-21T02:50:46;16.07;46.82
70214;DHT22;60138;55.808;37.078;2022-08-21T02:53:14;16.08;47.02
70214;DHT22;60138;55.808;37.078;2022-08-21T02:55:40;16.05;47.06
70214;DHT22;60138;55.808;37.078;2022-08-21T02:58:07;16.03;47.15
70214;DHT22;60138;55.808;37.078;2022-08-21T03:00:35;16.02;47.46
70214;DHT22;60138;55.808;37.078;2022-08-21T03:03:02;15.99;47.57
70214;DHT22;60138;55.808;37.078;2022-08-21T03:05:29;15.98;47.67
70214;DHT22;60138;55.808;37.078;2022-08-21T03:07:55;15.98;47.58
70214;DHT22;60138;55.808;37.078;2022-08-21T03:10:21;15.99;47.73
70214;DHT22;60138;55.808;37.078;2022-08-21T03:12:48;16.00;47.37
70214;DHT22;60138;55.808;37.078;2022-08-21T03:15:17;16.03;47.70
70214;DHT22;60138;55.808;37.078;2022-08-21T03:17:44;16.05;47.45
70214;DHT22;60138;55.808;37.078;2022-08-21T03:20:11;16.10;47.56
70214;DHT22;60138;55.808;37.078;2022-08-21T03:22:37;16.12;47.73
70214;DHT22;60138;55.808;37.078;2022-08-21T03:25:03;16.15;47.57
70214;DHT22;60138;55.808;37.078;2022-08-21T03:27:30;16.17;47.62
70214;DHT22;60138;55.808;37.078;2022-08-21T03:29:55;16.19;47.66
70214;DHT22;60138;55.808;37.078;2022-08-21T03:32:21;16.22;47.48
70214;DHT22;60138;55.808;37.078;2022-08-21T03:34:47;16.25;47.53
70214;DHT22;60138;55.808;37.078;2022-08-21T03:37:13;16.29;47.75
70214;DHT22;60138;55.808;37.078;2022-08-21T03:39:40;16.33;47.54
70214;DHT22;60138;55.808;37.078;2022-08-21T03:42:06;16.37;47.73
70214;DHT22;60138;55.808;37.078;2022-08-21T03:44:32;16.44;47.68
70214;DHT22;60138;55.808;37.078;2022-08-21T03:46:58;16.56;47.47
70214;DHT22;60138;55.808;37.078;2022-08-21T03:49:25;16.72;47.41
70214;DHT22;60138;55.808;37.078;2022-08-21T03:51:50;16.88;47.50
70214;DHT22;60138;55.808;37.078;2022-08-21T03:54:16;17.02;46.94
70214;DHT22;60138;55.808;37.078;2022-08-21T03:56:42;17.15;46.72
70214;DHT22;60138;55.808;37.078;2022-08-21T03:59:08;17.24;46.83
70214;DHT22;60138;55.808;37.078;2022-08-21T04:01:34;17.36;46.51
70214;DHT22;60138;55.808;37.078;2022-08-21T04:04:00;17.45;46.67
70214;DHT22;60138;55.808;37.078;2022-08-21T04:06:27;17.53;46.22
70214;DHT22;60138;55.808;37.078;2022-08-21T04:08:53;17.62;46.13
70214;DHT22;60138;55.808;37.078;2022-08-21T04:11:19;17.69;45.97
70214;DHT22;60138;55.808;37.078;2022-08-21T04:13:45;17.77;45.93
70214;DHT22;60138;55.808;37.078;2022-08-21T04:16:12;17.85;45.72
70214;DHT22;60138;55.808;37.078;2022-08-21T04:18:38;17.91;45.57
70214;DHT22;60138;55.808;37.078;2022-08-21T04:21:05;17.98;45.48
70214;DHT22;60138;55.808;37.078;2022-08-21T04:23:31;18.04;45.25
70214;DHT22;60138;55.808;37.078;2022-08-21T04:25:57;18.08;45.19
70214;DHT22;60138;55.808;37.078;2022-08-21T04:28:24;18.12;45.06
70214;DHT22;60138;55.808;37.078;2022-08-21T04:30:52;18.17;44.90
70214;DHT22;60138;55.808;37.078;2022-08-21T04:33:19;18.22;44.84
70214;DHT22;60138;55.808;37.078;2022-08-21T04:35:45;18.26;44.94
70214;DHT22;60138;55.808;37.078;2022-08-21T04:38:11;18.34;44.78
70214;DHT22;60138;55.808;37.078;2022-08-21T04:40:37;18.43;44.82
70214;DHT22;60138;55.808;37.078;2022-08-21T04:43:08;18.56;44.45
70214;DHT22;60138;55.808;37.078;2022-08-21T04:45:44;18.71;44.35
70214;DHT22;60138;55.808;37.078;2022-08-21T04:48:12;18.84;44.00
70214;DHT22;60138;55.808;37.078;2022-08-21T04:50:48;18.96;43.74
70214;DHT22;60138;55.808;37.078;2022-08-21T04:53:23;19.09;43.44
70214;DHT22;60138;55.808;37.078;2022-08-21T04:55:51;19.21;43.46
70214;DHT22;60138;55.808;37.078;2022-08-21T04:58:19;19.32;42.86
70214;DHT22;60138;55.808;37.078;2022-08-21T05:00:46;19.42;43.06
70214;DHT22;60138;55.808;37.078;2022-08-21T05:03:14;19.51;43.08
70214;DHT22;60138;55.808;37.078;2022-08-21T05:05:42;19.60;42.74
70214;DHT22;60138;55.808;37.078;2022-08-21T05:08:12;19.68;42.68
70214;DHT22;60138;55.808;37.078;2022-08-21T05:10:39;19.75;42.55
70214;DHT22;60138;55.808;37.078;2022-08-21T05:13:06;19.83;42.44
70214;DHT22;60138;55.808;37.078;2022-08-21T05:15:32;19.89;42.42
70214;DHT22;60138;55.808;37.078;2022-08-21T05:17:57;19.94;42.23
70214;DHT22;60138;55.808;37.078;2022-08-21T05:20:23;19.99;42.36
70214;DHT22;60138;55.808;37.078;2022-08-21T05:22:49;20.04;41.87
70214;DHT22;60138;55.808;37.078;2022-08-21T05:25:15;20.10;41.63
70214;DHT22;60138;55.808;37.078;2022-08-21T05:27:41;20.15;41.62
70214;DHT22;60138;55.808;37.078;2022-08-21T05:30:08;20.18;41.74
70214;DHT22;60138;55.808;37.078;2022-08-21T05:32:35;20.26;41.58
70214;DHT22;60138;55.808;37.078;2022-08-21T05:35:02;20.32;41.64
70214;DHT22;60138;55.808;37.078;2022-08-21T05:37:29;20.40;41.41
70214;DHT22;60138;55.808;37.078;2022-08-21T05:39:54;20.49;41.29
70214;DHT22;60138;55.808;37.078;2022-08-21T05:42:20;20.57;41.14
70214;DHT22;60138;55.808;37.078;2022-08-21T05:44:46;20.66;41.21
70214;DHT22;60138;55.808;37.078;2022-08-21T05:47:14;20.73;40.86
70214;DHT22;60138;55.808;37.078;2022-08-21T05:49:39;20.78;40.85
70214;DHT22;60138;55.808;37.078;2022-08-21T05:52:05;20.85;40.78
70214;DHT22;60138;55.808;37.078;2022-08-21T05:54:31;20.91;40.33
70214;DHT22;60138;55.808;37.078;2022-08-21T05:56:57;20.98;40.31
70214;DHT22;60138;55.808;37.078;2022-08-21T05:59:23;21.01;40.34
70214;DHT22;60138;55.808;37.078;2022-08-21T06:01:49;21.03;40.05
70214;DHT22;60138;55.808;37.078;2022-08-21T06:04:14;21.04;39.62
70214;DHT22;60138;55.808;37.078;2022-08-21T06:06:40;21.04;39.36
70214;DHT22;60138;55.808;37.078;2022-08-21T06:09:06;21.03;38.73
70214;DHT22;60138;55.808;37.078;2022-08-21T06:11:33;20.99;39.67
70214;DHT22;60138;55.808;37.078;2022-08-21T06:13:59;20.93;39.06
70214;DHT22;60138;55.808;37.078;2022-08-21T06:16:25;20.91;38.82
70214;DHT22;60138;55.808;37.078;2022-08-21T06:18:51;20.89;39.07
70214;DHT22;60138;55.808;37.078;2022-08-21T06:21:17;20.88;38.89
70214;DHT22;60138;55.808;37.078;2022-08-21T06:23:44;20.85;38.73
70214;DHT22;60138;55.808;37.078;2022-08-21T06:26:11;20.79;38.82
70214;DHT22;60138;55.808;37.078;2022-08-21T06:28:38;20.78;39.22
70214;DHT22;60138;55.808;37.078;2022-08-21T06:31:12;20.77;39.10
70214;DHT22;60138;55.808;37.078;2022-08-21T06:33:38;20.76;39.42
70214;DHT22;60138;55.808;37.078;2022-08-21T06:36:04;20.76;39.33
70214;DHT22;60138;55.808;37.078;2022-08-21T06:38:30;20.77;39.36
70214;DHT22;60138;55.808;37.078;2022-08-21T06:40:56;20.81;38.94
70214;DHT22;60138;55.808;37.078;2022-08-21T06:43:22;20.87;39.17
70214;DHT22;60138;55.808;37.078;2022-08-21T06:45:48;20.86;39.14
70214;DHT22;60138;55.808;37.078;2022-08-21T06:48:13;20.84;39.24
70214;DHT22;60138;55.808;37.078;2022-08-21T06:50:40;20.87;39.30
70214;DHT22;60138;55.808;37.078;2022-08-21T06:53:09;20.90;39.18
70214;DHT22;60138;55.808;37.078;2022-08-21T06:55:36;20.95;39.26
70214;DHT22;60138;55.808;37.078;2022-08-21T06:58:03;21.01;39.14
70214;DHT22;60138;55.808;37.078;2022-08-21T07:00:29;21.06;38.66
70214;DHT22;60138;55.808;37.078;2022-08-21T07:02:55;21.11;38.56
70214;DHT22;60138;55.808;37.078;2022-08-21T07:05:22;21.16;38.62
70214;DHT22;60138;55.808;37.078;2022-08-21T07:07:50;21.19;38.44
70214;DHT22;60138;55.808;37.078;2022-08-21T07:10:16;21.22;38.54
70214;DHT22;60138;55.808;37.078;2022-08-21T07:12:41;21.30;37.99
70214;DHT22;60138;55.808;37.078;2022-08-21T07:15:08;21.37;37.89
70214;DHT22;60138;55.808;37.078;2022-08-21T07:17:34;21.45;37.74
70214;DHT22;60138;55.808;37.078;2022-08-21T07:19:59;21.51;37.01
70214;DHT22;60138;55.808;37.078;2022-08-21T07:22:25;21.52;37.52
70214;DHT22;60138;55.808;37.078;2022-08-21T07:24:51;21.59;37.20
70214;DHT22;60138;55.808;37.078;2022-08-21T07:27:16;21.63;37.46
70214;DHT22;60138;55.808;37.078;2022-08-21T07:29:42;21.67;37.37
70214;DHT22;60138;55.808;37.078;2022-08-21T07:32:08;21.76;37.40
70214;DHT22;60138;55.808;37.078;2022-08-21T07:34:34;21.80;36.92
70214;DHT22;60138;55.808;37.078;2022-08-21T07:37:00;21.83;36.30
70214;DHT22;60138;55.808;37.078;2022-08-21T07:39:25;21.87;36.11
70214;DHT22;60138;55.808;37.078;2022-08-21T07:41:51;21.88;35.67
70214;DHT22;60138;55.808;37.078;2022-08-21T07:44:17;21.91;36.24
70214;DHT22;60138;55.808;37.078;2022-08-21T07:46:43;21.94;35.47
70214;DHT22;60138;55.808;37.078;2022-08-21T07:49:08;21.98;35.79
70214;DHT22;60138;55.808;37.078;2022-08-21T07:51:34;22.01;35.76
70214;DHT22;60138;55.808;37.078;2022-08-21T07:54:00;22.05;36.43
70214;DHT22;60138;55.808;37.078;2022-08-21T07:56:27;22.08;35.69
70214;DHT22;60138;55.808;37.078;2022-08-21T07:58:53;22.17;36.14
70214;DHT22;60138;55.808;37.078;2022-08-21T08:01:19;22.26;35.82
70214;DHT22;60138;55.808;37.078;2022-08-21T08:03:46;22.33;35.66
70214;DHT22;60138;55.808;37.078;2022-08-21T08:06:12;22.41;35.66
70214;DHT22;60138;55.808;37.078;2022-08-21T08:08:39;22.49;35.59
70214;DHT22;60138;55.808;37.078;2022-08-21T08:11:05;22.57;35.96
70214;DHT22;60138;55.808;37.078;2022-08-21T08:13:31;22.64;34.81
70214;DHT22;60138;55.808;37.078;2022-08-21T08:15:57;22.72;35.05
70214;DHT22;60138;55.808;37.078;2022-08-21T08:18:22;22.83;33.94
70214;DHT22;60138;55.808;37.078;2022-08-21T08:20:48;22.96;34.94
70214;DHT22;60138;55.808;37.078;2022-08-21T08:23:15;23.08;33.14
70214;DHT22;60138;55.808;37.078;2022-08-21T08:25:42;23.22;33.75
70214;DHT22;60138;55.808;37.078;2022-08-21T08:28:08;23.30;33.82
70214;DHT22;60138;55.808;37.078;2022-08-21T08:30:34;23.43;34.24
70214;DHT22;60138;55.808;37.078;2022-08-21T08:33:00;23.56;33.67
70214;DHT22;60138;55.808;37.078;2022-08-21T08:35:26;23.69;32.21
70214;DHT22;60138;55.808;37.078;2022-08-21T08:37:52;23.80;33.82
70214;DHT22;60138;55.808;37.078;2022-08-21T08:40:44;23.84;33.32
70214;DHT22;60138;55.808;37.078;2022-08-21T08:43:12;23.88;33.82
70214;DHT22;60138;55.808;37.078;2022-08-21T08:45:40;23.92;33.01
70214;DHT22;60138;55.808;37.078;2022-08-21T08:48:10;23.96;33.63
70214;DHT22;60138;55.808;37.078;2022-08-21T08:50:45;23.99;33.09
70214;DHT22;60138;55.808;37.078;2022-08-21T08:53:17;24.02;32.41
70214;DHT22;60138;55.808;37.078;2022-08-21T08:55:46;24.05;31.48
70214;DHT22;60138;55.808;37.078;2022-08-21T08:58:26;24.12;31.82
70214;DHT22;60138;55.808;37.078;2022-08-21T09:00:54;24.21;32.96
70214;DHT22;60138;55.808;37.078;2022-08-21T09:03:22;24.27;31.44
70214;DHT22;60138;55.808;37.078;2022-08-21T09:06:53;24.35;31.52
70214;DHT22;60138;55.808;37.078;2022-08-21T09:17:29;24.95;30.58
70214;DHT22;60138;55.808;37.078;2022-08-21T09:20:33;25.17;30.99
70214;DHT22;60138;55.808;37.078;2022-08-21T09:26:14;25.52;28.36
70214;DHT22;60138;55.808;37.078;2022-08-21T09:28:40;25.64;29.71
70214;DHT22;60138;55.808;37.078;2022-08-21T09:33:47;25.91;29.26
70214;DHT22;60138;55.808;37.078;2022-08-21T09:36:24;26.04;29.42
70214;DHT22;60138;55.808;37.078;2022-08-21T09:38:54;26.19;29.90
70214;DHT22;60138;55.808;37.078;2022-08-21T09:41:30;26.30;30.13
70214;DHT22;60138;55.808;37.078;2022-08-21T09:43:57;26.36;28.44
70214;DHT22;60138;55.808;37.078;2022-08-21T09:46:25;26.46;29.33
70214;DHT22;60138;55.808;37.078;2022-08-21T09:48:54;26.51;29.50
70214;DHT22;60138;55.808;37.078;2022-08-21T09:51:27;26.54;28.93
70214;DHT22;60138;55.808;37.078;2022-08-21T09:56:36;26.54;29.15
70214;DHT22;60138;55.808;37.078;2022-08-21T09:59:33;26.57;28.89
70214;DHT22;60138;55.808;37.078;2022-08-21T10:02:18;26.55;29.31
70214;DHT22;60138;55.808;37.078;2022-08-21T10:04:57;26.51;28.87
70214;DHT22;60138;55.808;37.078;2022-08-21T10:07:25;26.50;29.18
70214;DHT22;60138;55.808;37.078;2022-08-21T10:10:03;26.48;29.06
70214;DHT22;60138;55.808;37.078;2022-08-21T10:18:13;26.53;30.00
70214;DHT22;60138;55.808;37.078;2022-08-21T10:20:49;26.60;29.16
70214;DHT22;60138;55.808;37.078;2022-08-21T10:35:18;26.61;28.61
70214;DHT22;60138;55.808;37.078;2022-08-21T10:40:57;26.69;28.65
70214;DHT22;60138;55.808;37.078;2022-08-21T10:49:22;26.75;28.74
70214;DHT22;60138;55.808;37.078;2022-08-21T10:52:08;26.75;28.27
70214;DHT22;60138;55.808;37.078;2022-08-21T10:54:45;26.72;28.02
70214;DHT22;60138;55.808;37.078;2022-08-21T10:57:49;26.70;27.90
70214;DHT22;60138;55.808;37.078;2022-08-21T11:00:19;26.67;28.53
70214;DHT22;60138;55.808;37.078;2022-08-21T11:08:20;26.48;27.23
70214;DHT22;60138;55.808;37.078;2022-08-21T11:10:52;26.43;28.81
70214;DHT22;60138;55.808;37.078;2022-08-21T11:14:10;26.38;27.92
70214;DHT22;60138;55.808;37.078;2022-08-21T11:16:41;26.36;28.82
70214;DHT22;60138;55.808;37.078;2022-08-21T11:19:13;26.34;28.84
70214;DHT22;60138;55.808;37.078;2022-08-21T11:22:12;26.39;27.55
70214;DHT22;60138;55.808;37.078;2022-08-21T11:25:07;26.60;28.29
70214;DHT22;60138;55.808;37.078;2022-08-21T11:27:48;26.99;28.06
70214;DHT22;60138;55.808;37.078;2022-08-21T11:30:15;27.37;27.21
70214;DHT22;60138;55.808;37.078;2022-08-21T11:43:22;27.65;26.07
70214;DHT22;60138;55.808;37.078;2022-08-21T11:45:56;27.47;27.35
70214;DHT22;60138;55.808;37.078;2022-08-21T11:52:03;26.87;25.42
70214;DHT22;60138;55.808;37.078;2022-08-21T12:00:00;26.21;26.57
70214;DHT22;60138;55.808;37.078;2022-08-21T12:02:43;26.06;26.62
70214;DHT22;60138;55.808;37.078;2022-08-21T12:05:32;25.92;25.56
70214;DHT22;60138;55.808;37.078;2022-08-21T12:08:12;25.83;27.44
70214;DHT22;60138;55.808;37.078;2022-08-21T12:11:00;25.79;25.26
70214;DHT22;60138;55.808;37.078;2022-08-21T12:13:30;25.75;25.48
70214;DHT22;60138;55.808;37.078;2022-08-21T12:16:10;25.69;26.12
70214;DHT22;60138;55.808;37.078;2022-08-21T12:18:36;25.69;26.41
70214;DHT22;60138;55.808;37.078;2022-08-21T12:21:24;25.69;26.20
70214;DHT22;60138;55.808;37.078;2022-08-21T12:24:05;25.72;25.79
70214;DHT22;60138;55.808;37.078;2022-08-21T12:26:55;25.72;25.08
70214;DHT22;60138;55.808;37.078;2022-08-21T12:34:15;25.81;27.17
70214;DHT22;60138;55.808;37.078;2022-08-21T12:36:54;25.88;26.78
70214;DHT22;60138;55.808;37.078;2022-08-21T12:39:26;25.95;26.43
70214;DHT22;60138;55.808;37.078;2022-08-21T12:42:05;26.03;26.21
70214;DHT22;60138;55.808;37.078;2022-08-21T12:44:38;26.17;27.16
70214;DHT22;60138;55.808;37.078;2022-08-21T12:50:35;26.42;25.16
70214;DHT22;60138;55.808;37.078;2022-08-21T12:55:43;26.46;25.83
70214;DHT22;60138;55.808;37.078;2022-08-21T12:58:21;26.49;24.38
70214;DHT22;60138;55.808;37.078;2022-08-21T13:00:53;26.46;25.88
70214;DHT22;60138;55.808;37.078;2022-08-21T13:03:21;26.42;25.95
70214;DHT22;60138;55.808;37.078;2022-08-21T13:05:47;26.37;25.68
70214;DHT22;60138;55.808;37.078;2022-08-21T13:08:13;26.28;25.14
70214;DHT22;60138;55.808;37.078;2022-08-21T13:10:43;26.23;25.66
70214;DHT22;60138;55.808;37.078;2022-08-21T13:13:18;26.18;24.35
70214;DHT22;60138;55.808;37.078;2022-08-21T13:15:45;26.16;26.08
70214;DHT22;60138;55.808;37.078;2022-08-21T13:18:21;26.15;24.91
70214;DHT22;60138;55.808;37.078;2022-08-21T13:20:47;26.15;26.32
70214;DHT22;60138;55.808;37.078;2022-08-21T13:23:30;26.17;24.75
70214;DHT22;60138;55.808;37.078;2022-08-21T13:25:56;26.22;25.99
70214;DHT22;60138;55.808;37.078;2022-08-21T13:28:22;26.30;25.46
70214;DHT22;60138;55.808;37.078;2022-08-21T13:30:51;26.45;25.91
70214;DHT22;60138;55.808;37.078;2022-08-21T13:33:20;26.56;25.32
70214;DHT22;60138;55.808;37.078;2022-08-21T13:35:57;26.72;25.52
70214;DHT22;60138;55.808;37.078;2022-08-21T13:38:32;26.85;24.68
70214;DHT22;60138;55.808;37.078;2022-08-21T13:41:04;26.97;25.25
70214;DHT22;60138;55.808;37.078;2022-08-21T13:43:35;27.20;24.76
70214;DHT22;60138;55.808;37.078;2022-08-21T13:46:06;27.45;24.64
70214;DHT22;60138;55.808;37.078;2022-08-21T13:48:34;27.68;24.75
70214;DHT22;60138;55.808;37.078;2022-08-21T13:51:00;27.80;25.38
70214;DHT22;60138;55.808;37.078;2022-08-21T13:53:55;27.91;25.62
70214;DHT22;60138;55.808;37.078;2022-08-21T13:58:49;28.33;24.53
70214;DHT22;60138;55.808;37.078;2022-08-21T14:01:24;28.21;23.43
70214;DHT22;60138;55.808;37.078;2022-08-21T14:03:53;28.05;24.27
70214;DHT22;60138;55.808;37.078;2022-08-21T14:06:22;27.90;24.69
70214;DHT22;60138;55.808;37.078;2022-08-21T14:08:58;27.81;24.13
70214;DHT22;60138;55.808;37.078;2022-08-21T14:11:25;27.82;24.88
70214;DHT22;60138;55.808;37.078;2022-08-21T14:14:04;27.88;24.34
70214;DHT22;60138;55.808;37.078;2022-08-21T14:16:44;27.83;24.49
70214;DHT22;60138;55.808;37.078;2022-08-21T14:19:26;27.71;25.52
70214;DHT22;60138;55.808;37.078;2022-08-21T14:21:52;27.56;24.52
70214;DHT22;60138;55.808;37.078;2022-08-21T14:26:53;27.32;23.75
70214;DHT22;60138;55.808;37.078;2022-08-21T14:29:22;27.20;24.85
70214;DHT22;60138;55.808;37.078;2022-08-21T14:31:52;27.11;25.20
70214;DHT22;60138;55.808;37.078;2022-08-21T14:34:18;27.05;25.51
70214;DHT22;60138;55.808;37.078;2022-08-21T14:36:44;26.97;25.27
70214;DHT22;60138;55.808;37.078;2022-08-21T14:39:10;26.91;25.49
70214;DHT22;60138;55.808;37.078;2022-08-21T14:41:36;26.86;25.75
70214;DHT22;60138;55.808;37.078;2022-08-21T14:44:03;26.83;25.58
70214;DHT22;60138;55.808;37.078;2022-08-21T14:46:30;26.80;25.66
70214;DHT22;60138;55.808;37.078;2022-08-21T14:48:56;26.73;25.54
70214;DHT22;60138;55.808;37.078;2022-08-21T14:51:22;26.65;25.16
70214;DHT22;60138;55.808;37.078;2022-08-21T14:53:48;26.53;24.70
70214;DHT22;60138;55.808;37.078;2022-08-21T14:56:14;26.45;25.10
70214;DHT22;60138;55.808;37.078;2022-08-21T14:58:42;26.39;25.95
70214;DHT22;60138;55.808;37.078;2022-08-21T15:01:09;26.42;25.82
70214;DHT22;60138;55.808;37.078;2022-08-21T15:03:36;26.46;25.64
70214;DHT22;60138;55.808;37.078;2022-08-21T15:06:04;26.49;25.43
70214;DHT22;60138;55.808;37.078;2022-08-21T15:08:30;26.47;25.13
70214;DHT22;60138;55.808;37.078;2022-08-21T15:10:56;26.38;25.61
70214;DHT22;60138;55.808;37.078;2022-08-21T15:13:22;26.21;25.88
70214;DHT22;60138;55.808;37.078;2022-08-21T15:15:50;26.02;25.17
70214;DHT22;60138;55.808;37.078;2022-08-21T15:18:16;25.84;25.44
70214;DHT22;60138;55.808;37.078;2022-08-21T15:20:42;25.71;26.01
70214;DHT22;60138;55.808;37.078;2022-08-21T15:23:08;25.57;26.13
70214;DHT22;60138;55.808;37.078;2022-08-21T15:25:35;25.42;26.20
70214;DHT22;60138;55.808;37.078;2022-08-21T15:28:02;25.29;26.49
70214;DHT22;60138;55.808;37.078;2022-08-21T15:30:29;25.15;26.33
70214;DHT22;60138;55.808;37.078;2022-08-21T15:32:55;25.04;26.67
70214;DHT22;60138;55.808;37.078;2022-08-21T15:35:21;24.93;26.78
70214;DHT22;60138;55.808;37.078;2022-08-21T15:37:47;24.85;26.82
70214;DHT22;60138;55.808;37.078;2022-08-21T15:40:13;24.77;26.91
70214;DHT22;60138;55.808;37.078;2022-08-21T15:42:40;24.70;26.94
70214;DHT22;60138;55.808;37.078;2022-08-21T15:45:06;24.62;27.23
70214;DHT22;60138;55.808;37.078;2022-08-21T15:47:34;24.53;26.97
70214;DHT22;60138;55.808;37.078;2022-08-21T15:50:09;24.45;27.44
70214;DHT22;60138;55.808;37.078;2022-08-21T15:52:37;24.35;27.49
70214;DHT22;60138;55.808;37.078;2022-08-21T15:55:05;24.30;27.54
70214;DHT22;60138;55.808;37.078;2022-08-21T15:57:31;24.24;27.61
70214;DHT22;60138;55.808;37.078;2022-08-21T16:00:00;24.19;27.23
70214;DHT22;60138;55.808;37.078;2022-08-21T16:02:38;24.17;27.52
70214;DHT22;60138;55.808;37.078;2022-08-21T16:05:05;24.16;27.66
70214;DHT22;60138;55.808;37.078;2022-08-21T16:07:31;24.15;27.45
70214;DHT22;60138;55.808;37.078;2022-08-21T16:09:56;24.14;27.55
70214;DHT22;60138;55.808;37.078;2022-08-21T16:12:25;24.14;27.24
70214;DHT22;60138;55.808;37.078;2022-08-21T16:14:52;24.14;27.20
70214;DHT22;60138;55.808;37.078;2022-08-21T16:17:21;24.11;27.31
70214;DHT22;60138;55.808;37.078;2022-08-21T16:19:50;24.10;27.29
70214;DHT22;60138;55.808;37.078;2022-08-21T16:22:16;24.08;27.33
70214;DHT22;60138;55.808;37.078;2022-08-21T16:24:41;24.05;27.42
70214;DHT22;60138;55.808;37.078;2022-08-21T16:27:08;24.02;27.25
70214;DHT22;60138;55.808;37.078;2022-08-21T16:29:35;24.01;26.69
70214;DHT22;60138;55.808;37.078;2022-08-21T16:32:03;23.99;27.37
70214;DHT22;60138;55.808;37.078;2022-08-21T16:34:29;23.97;27.55
70214;DHT22;60138;55.808;37.078;2022-08-21T16:36:55;23.96;27.31
70214;DHT22;60138;55.808;37.078;2022-08-21T16:39:21;23.94;27.10
70214;DHT22;60138;55.808;37.078;2022-08-21T16:41:47;23.91;27.28
70214;DHT22;60138;55.808;37.078;2022-08-21T16:44:13;23.88;27.52
70214;DHT22;60138;55.808;37.078;2022-08-21T16:46:40;23.85;27.64
70214;DHT22;60138;55.808;37.078;2022-08-21T16:49:06;23.83;27.65
70214;DHT22;60138;55.808;37.078;2022-08-21T16:51:32;23.80;27.56
70214;DHT22;60138;55.808;37.078;2022-08-21T16:53:59;23.76;27.68